Razgrad, Bulgaria
Current Conditions -  °F | °C
As of 2:00 AM on Friday 19 Dec 2014 (Local Time) from LBGO Reporting Station
Haze Haze  
Wind Chill: 39°   Ceiling: Unl
Heat Index: 39°   Visibility: 0.75mi
Dew Point: 39°   Wind: 1mph
Humidity: 100%   Direction: NA
Pressure: 30.15"   Gusts: NA
Location:  43.53°N, 26.53°E
Report Text: LBGO 182300Z VRB01KT 1200 1100E R09/1900N BR NSC 04/04 Q1021 R99/19//95 NOSIG
Loading
Personal Weather Stations






























Interactive Weather Map New forecast layout! Learn more

10-Day Weather Forecast

Advertisements
Track Severe Weather on mobile